Andover, Vermont
Current Conditions -  °F | °C
As of 10:54 AM on Saturday 22 Nov 2014 (Local Time) from KVSF Reporting Station
Clear Clear  
Wind Chill: 20°   Ceiling: Unl
Heat Index: 28°   Visibility: 10mi
Dew Point: 12°   Wind: 8mph
Humidity: 51%   Direction: 160°SSE
Pressure: 30.23"   Gusts: NA
Location:  43.2811°N, 72.6352°W
Report Text: KVSF 221554Z AUTO 16007KT 10SM CLR M02/M11 A3023 RMK AO2 SLP246 T10221111
Loading
Personal Weather Stations






























Interactive Weather Map New forecast layout! Learn more

10-Day Weather Forecast

Advertisements
Track Severe Weather on mobile